createdAt,value
2019-03-28T00:02:06.155Z,24.33
2019-03-28T00:04:37.895Z,23.07
2019-03-28T00:07:09.702Z,23.57
2019-03-28T00:09:41.233Z,20.80
2019-03-28T00:12:13.119Z,22.93
2019-03-28T00:14:44.677Z,22.47
2019-03-28T00:17:16.203Z,23.90
2019-03-28T00:19:48.072Z,22.67
2019-03-28T00:22:27.116Z,24.47
2019-03-28T00:25:15.265Z,24.23
2019-03-28T00:27:46.895Z,22.70
2019-03-28T00:30:19.610Z,25.20
2019-03-28T00:32:51.228Z,22.97
2019-03-28T00:35:22.892Z,24.97
2019-03-28T00:37:54.443Z,22.90
2019-03-28T00:40:26.309Z,22.00
2019-03-28T00:42:57.801Z,23.77
2019-03-28T00:45:29.449Z,22.90
2019-03-28T00:48:01.446Z,22.17
2019-03-28T00:50:33.291Z,21.03
2019-03-28T00:53:04.877Z,22.47
2019-03-28T00:55:37.234Z,21.70
2019-03-28T00:58:09.125Z,20.57
2019-03-28T01:00:40.800Z,20.50
2019-03-28T01:03:12.690Z,19.83
2019-03-28T01:05:44.344Z,20.10
2019-03-28T01:08:16.209Z,21.47
2019-03-28T01:10:47.861Z,19.97
2019-03-28T01:13:19.729Z,22.37
2019-03-28T01:15:51.377Z,19.40
2019-03-28T01:18:23.036Z,20.03
2019-03-28T01:20:54.505Z,19.90
2019-03-28T01:23:26.455Z,20.60
2019-03-28T01:25:58.844Z,19.70
2019-03-28T01:28:30.692Z,20.00
2019-03-28T01:31:17.917Z,20.53
2019-03-28T09:50:25.576Z,4.30
2019-03-28T09:52:56.992Z,3.87
2019-03-28T09:55:28.784Z,4.55
2019-03-28T09:58:00.441Z,4.70
2019-03-28T10:00:32.966Z,4.28
2019-03-28T10:03:04.751Z,4.60
2019-03-28T10:05:37.949Z,5.10
2019-03-28T10:08:09.228Z,3.83
2019-03-28T10:10:40.874Z,4.47
2019-03-28T10:13:12.300Z,4.87
2019-03-28T10:15:44.090Z,4.42
2019-03-28T10:18:15.748Z,4.90
2019-03-28T10:20:47.377Z,4.90
2019-03-28T10:23:20.131Z,4.92
2019-03-28T10:25:51.606Z,4.78
2019-03-28T10:28:23.161Z,5.20
2019-03-28T10:30:54.719Z,5.47
2019-03-28T10:33:26.200Z,5.05
2019-03-28T10:35:57.755Z,4.70
2019-03-28T10:38:29.424Z,5.20
2019-03-28T10:41:00.943Z,5.70
2019-03-28T10:43:33.745Z,4.70
2019-03-28T10:46:05.583Z,4.78
2019-03-28T10:48:37.272Z,5.55
2019-03-28T10:51:08.817Z,5.50
2019-03-28T10:53:40.477Z,5.65
2019-03-28T10:56:21.495Z,6.08
2019-03-28T10:58:46.151Z,5.03
2019-03-28T11:01:31.261Z,5.12
2019-03-28T11:03:50.667Z,4.87
2019-03-28T11:06:22.336Z,5.40
2019-03-28T11:08:53.910Z,4.83
2019-03-28T11:11:25.235Z,5.37
2019-03-28T11:13:56.888Z,4.85
2019-03-28T11:16:29.384Z,5.17
2019-03-28T11:19:00.948Z,4.90
2019-03-28T11:21:34.338Z,5.33
2019-03-28T11:24:05.572Z,5.50
2019-03-28T11:26:37.153Z,5.97
2019-03-28T11:29:08.925Z,5.65
2019-03-28T11:31:46.723Z,5.30
2019-03-28T11:34:14.682Z,5.72
2019-03-28T11:36:46.196Z,6.12
2019-03-28T11:39:17.799Z,6.70
2019-03-28T11:41:50.583Z,5.42
2019-03-28T11:44:23.368Z,5.12
2019-03-28T11:46:54.827Z,5.60
2019-03-28T11:49:27.329Z,5.08
2019-03-28T11:51:58.963Z,5.35
2019-03-28T11:54:30.412Z,4.95
2019-03-28T11:57:02.169Z,4.87
2019-03-28T11:59:33.402Z,4.72
2019-03-28T12:02:19.201Z,4.80
2019-03-28T12:04:38.835Z,4.33
2019-03-28T12:07:10.339Z,4.00
2019-03-28T12:09:41.791Z,4.42
2019-03-28T12:12:13.244Z,4.53
2019-03-28T12:14:44.803Z,4.45
2019-03-28T12:17:16.124Z,4.37
2019-03-28T12:19:47.615Z,3.90
2019-03-28T12:22:19.379Z,4.60
2019-03-28T12:24:51.131Z,4.12
2019-03-28T12:27:22.573Z,4.70
2019-03-28T12:29:54.114Z,5.10
2019-03-28T12:32:25.895Z,4.80
2019-03-28T12:34:57.337Z,4.62
2019-03-28T12:37:29.101Z,4.80
2019-03-28T12:40:00.739Z,4.67
2019-03-28T12:42:32.317Z,4.40
2019-03-28T12:45:05.106Z,4.72
2019-03-28T12:47:42.387Z,4.72
2019-03-28T12:50:10.065Z,4.45
2019-03-28T12:52:41.613Z,5.03
2019-03-28T12:55:14.290Z,4.50
2019-03-28T12:57:48.393Z,4.58
2019-03-28T13:00:21.985Z,4.47
2019-03-28T13:02:53.771Z,4.62
2019-03-28T13:05:25.238Z,4.83
2019-03-28T13:07:56.575Z,4.58
2019-03-28T13:10:29.867Z,4.40
2019-03-28T13:13:01.639Z,4.87
2019-03-28T13:15:33.187Z,4.17
2019-03-28T13:18:04.531Z,4.00
2019-03-28T13:20:36.066Z,6.90
2019-03-28T13:23:07.850Z,4.75
2019-03-28T13:25:39.397Z,9.75
2019-03-28T13:28:10.858Z,11.57
2019-03-28T13:30:43.819Z,27.50
2019-03-28T13:33:15.302Z,4.97
2019-03-28T13:35:46.637Z,6.90
2019-03-28T13:38:18.193Z,9.48
2019-03-28T13:40:49.758Z,4.30
2019-03-28T13:43:21.495Z,3.90
2019-03-28T13:45:52.754Z,3.40
2019-03-28T13:48:24.192Z,4.03
2019-03-28T13:50:55.670Z,3.65
2019-03-28T13:53:38.669Z,3.50
2019-03-28T13:56:00.415Z,6.15
2019-03-28T13:58:32.073Z,6.55
2019-03-28T14:01:03.731Z,5.17
2019-03-28T14:03:35.196Z,12.45
2019-03-28T14:06:07.036Z,6.35
2019-03-28T14:08:38.901Z,12.65
2019-03-28T14:11:10.576Z,14.03
2019-03-28T14:13:42.518Z,10.88
2019-03-28T14:16:14.093Z,7.67
2019-03-28T14:18:45.956Z,7.03
2019-03-28T14:21:17.523Z,6.60
2019-03-28T14:23:49.256Z,7.60
2019-03-28T14:26:20.722Z,5.20
2019-03-28T14:28:52.258Z,4.55
2019-03-28T14:31:23.936Z,4.90
2019-03-28T14:33:56.407Z,4.65
2019-03-28T14:36:27.756Z,5.43
2019-03-28T14:38:59.298Z,5.90
2019-03-28T14:41:30.750Z,7.00
2019-03-28T14:44:02.541Z,5.70
2019-03-28T14:46:34.298Z,5.47
2019-03-28T14:49:05.950Z,5.33
2019-03-28T14:51:37.477Z,5.80
2019-03-28T14:54:09.150Z,5.93
2019-03-28T14:56:40.705Z,6.10
2019-03-28T14:59:12.247Z,6.77
2019-03-28T15:01:43.951Z,6.43
2019-03-28T15:04:15.363Z,6.73
2019-03-28T15:06:46.811Z,7.97
2019-03-28T15:09:18.370Z,8.40
2019-03-28T15:11:50.249Z,7.37
2019-03-28T15:14:21.910Z,6.30
2019-03-28T15:16:53.566Z,13.50
2019-03-28T15:19:25.211Z,10.70
2019-03-28T15:21:56.668Z,10.30
2019-03-28T15:24:28.817Z,9.25
2019-03-28T15:27:00.259Z,9.10
2019-03-28T15:29:31.959Z,12.77
2019-03-28T15:32:03.599Z,16.73
2019-03-28T15:34:35.479Z,15.60
2019-03-28T15:37:07.449Z,14.17
2019-03-28T15:39:39.035Z,15.13
2019-03-28T15:42:10.756Z,14.40
2019-03-28T15:44:42.516Z,15.75
2019-03-28T15:47:14.059Z,29.43
2019-03-28T15:49:45.920Z,9.00
2019-03-28T15:52:18.515Z,4.55
2019-03-28T15:54:50.561Z,3.10
2019-03-28T15:57:23.035Z,3.75
2019-03-28T15:59:54.508Z,3.40
2019-03-28T16:02:25.939Z,3.60
2019-03-28T16:04:57.311Z,3.83
2019-03-28T16:07:29.511Z,3.67
2019-03-28T16:10:02.350Z,3.72
2019-03-28T16:12:34.140Z,3.90
2019-03-28T16:15:08.536Z,3.83
2019-03-28T16:17:39.985Z,4.10
2019-03-28T16:20:11.453Z,4.10
2019-03-28T16:22:43.200Z,5.00
2019-03-28T16:25:14.756Z,5.50
2019-03-28T16:27:46.235Z,7.60
2019-03-28T16:30:20.751Z,5.67
2019-03-28T16:32:53.259Z,6.73
2019-03-28T16:35:24.664Z,7.50
2019-03-28T16:37:56.335Z,7.30
2019-03-28T16:40:27.981Z,9.23
2019-03-28T16:42:59.842Z,13.90
2019-03-28T16:45:31.714Z,11.87
2019-03-28T16:48:03.362Z,12.40
2019-03-28T16:50:35.034Z,10.73
2019-03-28T16:53:06.793Z,11.83
2019-03-28T16:55:38.634Z,10.90
2019-03-28T16:58:10.320Z,11.23
2019-03-28T17:00:41.858Z,11.30
2019-03-28T17:03:13.419Z,10.57
2019-03-28T17:05:47.115Z,11.27
2019-03-28T17:08:18.367Z,10.82
2019-03-28T17:10:50.858Z,15.03
2019-03-28T17:13:22.613Z,16.50
2019-03-28T17:15:54.173Z,20.53
2019-03-28T17:18:25.921Z,24.60
2019-03-28T17:20:57.574Z,55.23
2019-03-28T17:23:29.430Z,49.10
2019-03-28T17:26:01.089Z,69.50
2019-03-28T17:28:32.656Z,68.73
2019-03-28T17:31:05.436Z,63.20
2019-03-28T17:33:37.311Z,58.53
2019-03-28T17:36:09.072Z,56.43
2019-03-28T17:38:40.813Z,57.73
2019-03-28T17:41:12.498Z,59.87
2019-03-28T17:43:44.238Z,57.47
2019-03-28T17:46:16.204Z,56.67
2019-03-28T17:48:47.757Z,54.13
2019-03-28T17:51:19.915Z,51.90
2019-03-28T17:53:51.698Z,45.53
2019-03-28T17:56:23.444Z,44.70
2019-03-28T17:58:55.185Z,40.07
2019-03-28T18:01:26.945Z,42.10
2019-03-28T18:03:58.416Z,42.37
2019-03-28T18:06:39.584Z,42.27
2019-03-28T18:09:13.507Z,40.67
2019-03-28T18:11:45.448Z,45.13
2019-03-28T18:14:16.918Z,50.30
2019-03-28T18:16:48.684Z,50.40
2019-03-28T18:19:21.773Z,50.20
2019-03-28T18:22:03.462Z,49.67
2019-03-28T18:24:30.185Z,50.75
2019-03-28T18:27:00.123Z,50.03
2019-03-28T18:29:31.861Z,51.57
2019-03-28T18:32:04.050Z,54.53
2019-03-28T18:34:35.909Z,50.67
2019-03-28T18:37:07.586Z,52.10
2019-03-28T18:39:41.990Z,50.83
2019-03-28T18:42:13.451Z,53.85
2019-03-28T18:44:45.111Z,54.50
2019-03-28T18:47:17.870Z,54.20
2019-03-28T18:49:49.747Z,57.43
2019-03-28T18:52:21.610Z,57.03
2019-03-28T18:54:53.470Z,59.23
2019-03-28T18:57:25.117Z,84.07
2019-03-28T18:59:57.072Z,69.63
2019-03-28T19:02:28.749Z,65.10
2019-03-28T19:05:03.156Z,60.67
2019-03-28T19:10:07.515Z,56.73
2019-03-28T19:12:39.175Z,56.10
2019-03-28T19:15:11.354Z,56.77
2019-03-28T19:17:42.986Z,56.27
2019-03-28T19:20:16.400Z,58.03
2019-03-28T19:22:50.319Z,52.77
2019-03-28T19:25:21.963Z,53.75
2019-03-28T19:27:53.831Z,55.87
2019-03-28T19:30:32.151Z,55.87
2019-03-28T19:33:06.894Z,59.20
2019-03-28T19:35:37.504Z,60.60
2019-03-28T19:38:09.590Z,63.43
2019-03-28T19:40:43.634Z,63.97
2019-03-28T19:43:21.079Z,64.37
2019-03-28T19:45:48.131Z,65.30
2019-03-28T19:48:19.870Z,65.20
2019-03-28T19:50:51.211Z,77.57
2019-03-28T19:53:22.875Z,78.50
2019-03-28T19:55:54.973Z,77.33
2019-03-28T19:58:26.704Z,72.80
2019-03-28T20:00:58.466Z,72.40
2019-03-28T20:03:32.635Z,78.07
2019-03-28T20:06:04.250Z,76.82
2019-03-28T20:08:35.903Z,78.73
2019-03-28T20:11:07.602Z,69.37
2019-03-28T20:13:39.507Z,70.30
2019-03-28T20:16:11.247Z,71.17
2019-03-28T20:18:43.327Z,71.43
2019-03-28T20:21:15.293Z,72.20
2019-03-28T20:23:47.073Z,66.43
2019-03-28T20:26:21.415Z,60.10
2019-03-28T20:28:53.367Z,60.13
2019-03-28T20:31:25.192Z,56.93
2019-03-28T20:33:56.765Z,60.00
2019-03-28T20:36:37.758Z,60.53
2019-03-28T20:39:04.351Z,61.65
2019-03-28T20:41:35.436Z,73.90
2019-03-28T20:44:07.192Z,89.27
2019-03-28T20:46:40.929Z,96.63
2019-03-28T20:49:13.361Z,87.60
2019-03-28T20:51:44.922Z,86.53
2019-03-28T20:54:17.000Z,79.03
2019-03-28T20:56:48.845Z,69.87
2019-03-28T20:59:20.770Z,68.97
2019-03-28T21:01:52.460Z,66.40
2019-03-28T21:04:31.290Z,60.50
2019-03-28T21:06:57.297Z,60.33
2019-03-28T21:09:29.194Z,57.40
2019-03-28T21:12:01.138Z,58.90
2019-03-28T21:14:33.581Z,59.33
2019-03-28T21:17:05.683Z,60.07
2019-03-28T21:19:37.678Z,59.43
2019-03-28T21:22:09.895Z,64.40
2019-03-28T21:24:41.561Z,66.93
2019-03-28T21:27:30.057Z,68.80
2019-03-28T21:30:01.794Z,67.77
2019-03-28T21:32:33.646Z,68.47
2019-03-28T21:35:07.914Z,64.43
2019-03-28T21:37:40.446Z,66.97
2019-03-28T21:40:12.899Z,64.03
2019-03-28T21:42:44.780Z,60.80
2019-03-28T21:45:16.418Z,61.60
2019-03-28T21:47:50.271Z,61.13
2019-03-28T21:50:23.126Z,62.40
2019-03-28T21:52:54.785Z,62.27
2019-03-28T21:55:26.650Z,63.43
2019-03-28T21:57:58.305Z,62.13
2019-03-28T22:00:30.170Z,60.87
2019-03-28T22:03:01.498Z,64.00
2019-03-28T22:05:33.266Z,64.37
2019-03-28T22:08:04.788Z,58.80
2019-03-28T22:10:36.591Z,61.90
2019-03-28T22:13:08.256Z,62.00
2019-03-28T22:15:39.904Z,60.63
2019-03-28T22:18:11.768Z,61.47
2019-03-28T22:20:43.856Z,59.57
2019-03-28T22:23:15.475Z,58.60
2019-03-28T22:25:47.146Z,58.13
2019-03-28T22:28:18.788Z,60.23
2019-03-28T22:30:50.880Z,60.60
2019-03-28T22:33:22.312Z,57.60
2019-03-28T22:35:54.200Z,60.90
2019-03-28T22:38:25.524Z,58.50
2019-03-28T22:40:57.297Z,72.27
2019-03-28T22:43:28.856Z,69.57
2019-03-28T22:46:00.609Z,68.37
2019-03-28T22:48:32.367Z,68.63
2019-03-28T22:51:03.835Z,64.70
2019-03-28T22:53:35.596Z,67.03
2019-03-28T22:56:07.020Z,61.73
2019-03-28T22:58:38.598Z,56.00
2019-03-28T23:01:10.930Z,50.50
2019-03-28T23:03:42.627Z,53.87
2019-03-28T23:06:14.484Z,53.60
2019-03-28T23:08:46.145Z,51.90
2019-03-28T23:11:17.576Z,51.60
2019-03-28T23:13:49.458Z,50.90
2019-03-28T23:16:22.448Z,50.00
2019-03-28T23:18:54.103Z,49.77
2019-03-28T23:21:25.992Z,48.47
2019-03-28T23:23:57.726Z,49.20
2019-03-28T23:26:29.386Z,47.60
2019-03-28T23:29:01.021Z,48.67
2019-03-28T23:31:32.493Z,48.80
2019-03-28T23:34:04.351Z,51.77
2019-03-28T23:36:36.013Z,47.87
2019-03-28T23:39:07.978Z,49.17
2019-03-28T23:41:39.819Z,50.83
2019-03-28T23:44:11.706Z,50.73
2019-03-28T23:46:43.262Z,54.80
2019-03-28T23:49:15.130Z,53.23
2019-03-28T23:51:46.777Z,51.67
2019-03-28T23:54:18.321Z,44.67
2019-03-28T23:56:49.886Z,41.03
2019-03-28T23:59:22.447Z,40.20
